createdAt,value
2022-09-06T00:02:50.319Z,74.90
2022-09-06T00:07:54.962Z,75.90
2022-09-06T00:13:02.150Z,74.60
2022-09-06T00:18:07.042Z,75.20
2022-09-06T00:23:11.489Z,75.60
2022-09-06T00:28:16.458Z,75.80
2022-09-06T00:33:19.575Z,76.70
2022-09-06T00:38:23.929Z,76.40
2022-09-06T00:43:27.375Z,77.20
2022-09-06T00:48:30.929Z,76.80
2022-09-06T00:53:35.384Z,76.90
2022-09-06T00:58:38.741Z,79.70
2022-09-06T01:03:42.419Z,78.10
2022-09-06T01:09:02.203Z,79.10
2022-09-06T01:14:16.503Z,79.30
2022-09-06T01:19:43.554Z,79.30
2022-09-06T01:25:10.267Z,79.50
2022-09-06T01:30:17.537Z,79.40
2022-09-06T01:35:27.385Z,80.00
2022-09-06T01:40:30.634Z,79.70
2022-09-06T01:45:45.742Z,80.40
2022-09-06T01:51:04.310Z,80.80
2022-09-06T01:56:16.325Z,80.70
2022-09-06T02:01:28.212Z,80.80
2022-09-06T02:06:37.294Z,80.70
2022-09-06T02:11:44.280Z,81.30
2022-09-06T02:16:50.584Z,82.70
2022-09-06T02:21:57.243Z,80.60
2022-09-06T02:27:00.405Z,81.20
2022-09-06T02:32:11.159Z,81.60
2022-09-06T02:37:15.693Z,80.70
2022-09-06T02:42:18.990Z,81.10
2022-09-06T02:47:23.421Z,82.20
2022-09-06T02:52:27.426Z,83.40
2022-09-06T02:57:30.483Z,84.10
2022-09-06T03:02:34.860Z,84.20
2022-09-06T03:07:37.900Z,84.90
2022-09-06T03:12:42.597Z,85.10
2022-09-06T03:17:47.269Z,85.70
2022-09-06T03:22:50.473Z,86.70
2022-09-06T03:27:53.910Z,87.60
2022-09-06T03:33:02.572Z,88.50
2022-09-06T03:38:06.315Z,90.00
2022-09-06T03:43:09.329Z,90.20
2022-09-06T03:48:14.084Z,90.60
2022-09-06T03:53:18.324Z,90.70
2022-09-06T03:58:22.670Z,91.00
2022-09-06T04:03:27.249Z,91.00
2022-09-06T04:08:30.917Z,91.40
2022-09-06T04:13:35.129Z,91.50
2022-09-06T04:18:39.775Z,91.80
2022-09-06T04:23:42.923Z,91.80
2022-09-06T04:28:46.847Z,91.80
2022-09-06T04:33:51.281Z,92.00
2022-09-06T04:38:54.871Z,92.40
2022-09-06T04:43:58.206Z,92.40
2022-09-06T04:49:02.604Z,92.10
2022-09-06T04:54:05.819Z,92.20
2022-09-06T04:59:09.098Z,92.00
2022-09-06T05:04:13.654Z,92.50
2022-09-06T05:09:16.825Z,92.10
2022-09-06T05:14:19.974Z,92.00
2022-09-06T05:19:24.500Z,92.00
2022-09-06T05:24:27.551Z,92.00
2022-09-06T05:29:30.886Z,91.90
2022-09-06T05:34:35.612Z,91.10
2022-09-06T05:39:38.737Z,90.90
2022-09-06T05:44:41.898Z,90.30
2022-09-06T05:49:46.532Z,90.00
2022-09-06T05:54:49.833Z,90.40
2022-09-06T05:59:55.704Z,87.40
2022-09-06T06:05:00.330Z,86.80
2022-09-06T06:10:17.497Z,85.30
2022-09-06T06:15:23.353Z,85.00
2022-09-06T06:20:29.192Z,79.40
2022-09-06T06:25:32.369Z,73.80
2022-09-06T06:30:36.013Z,72.30
2022-09-06T06:35:40.627Z,70.80
2022-09-06T06:40:45.598Z,70.50
2022-09-06T06:45:50.071Z,71.00
2022-09-06T06:50:55.409Z,69.80
2022-09-06T06:55:59.480Z,66.20
2022-09-06T07:01:03.081Z,68.60
2022-09-06T07:11:15.014Z,67.60
2022-09-06T07:16:20.372Z,69.20
2022-09-06T07:26:40.625Z,70.20
2022-09-06T07:37:09.624Z,70.20
2022-09-06T07:42:13.129Z,66.90
2022-09-06T07:58:05.783Z,64.90
2022-09-06T08:03:09.064Z,65.10
2022-09-06T08:13:37.464Z,66.90
2022-09-06T08:18:40.740Z,68.60
2022-09-06T08:23:48.392Z,71.40
2022-09-06T08:28:54.090Z,71.40
2022-09-06T08:33:58.446Z,72.00
2022-09-06T08:39:05.393Z,71.40
2022-09-06T08:49:42.011Z,70.80
2022-09-06T08:54:53.913Z,71.10
2022-09-06T09:00:01.958Z,68.70
2022-09-06T09:05:11.719Z,68.80
2022-09-06T09:10:21.603Z,69.10
2022-09-06T09:15:25.860Z,68.90
2022-09-06T09:20:29.367Z,70.20
2022-09-06T09:25:36.013Z,71.70
2022-09-06T09:30:48.706Z,73.20
2022-09-06T09:35:53.387Z,73.50
2022-09-06T09:41:01.575Z,73.10
2022-09-06T09:46:13.949Z,73.10
2022-09-06T09:51:26.139Z,74.50
2022-09-06T09:56:37.631Z,73.10
2022-09-06T10:01:40.771Z,72.90
2022-09-06T10:12:16.981Z,72.30
2022-09-06T10:17:28.708Z,73.10
2022-09-06T10:22:35.275Z,72.20
2022-09-06T10:28:10.541Z,70.80
2022-09-06T10:33:26.813Z,70.50
2022-09-06T10:38:45.361Z,70.90
2022-09-06T10:44:00.113Z,70.40
2022-09-06T10:49:03.667Z,70.80
2022-09-06T10:54:10.546Z,71.60
2022-09-06T10:59:38.797Z,70.20
2022-09-06T11:10:16.550Z,71.30
2022-09-06T11:15:24.544Z,70.10
2022-09-06T11:20:33.573Z,71.90
2022-09-06T11:26:14.075Z,69.90
2022-09-06T11:36:49.035Z,69.50
2022-09-06T11:41:52.391Z,70.80
2022-09-06T11:47:03.986Z,68.30
2022-09-06T11:53:03.282Z,69.30
2022-09-06T11:58:12.244Z,68.70
2022-09-06T12:04:05.769Z,68.20
2022-09-06T12:09:32.602Z,68.20
2022-09-06T12:14:42.602Z,67.90
2022-09-06T12:19:48.657Z,67.40
2022-09-06T12:24:56.345Z,68.30
2022-09-06T12:30:01.991Z,67.80
2022-09-06T12:40:45.387Z,68.50
2022-09-06T12:45:51.495Z,67.30
2022-09-06T12:51:02.057Z,67.60
2022-09-06T12:56:09.194Z,65.60
2022-09-06T13:01:16.334Z,66.40
2022-09-06T13:06:27.033Z,66.00
2022-09-06T13:11:34.650Z,67.40
2022-09-06T13:16:43.863Z,66.30
2022-09-06T13:21:47.603Z,65.10
2022-09-06T13:26:52.587Z,65.10
2022-09-06T13:31:57.509Z,65.90
2022-09-06T13:37:03.908Z,65.10
2022-09-06T13:42:10.653Z,64.10
2022-09-06T13:47:13.809Z,66.10
2022-09-06T13:52:18.464Z,65.90
2022-09-06T13:57:24.661Z,65.70
2022-09-06T14:02:28.929Z,68.40
2022-09-06T14:07:32.447Z,66.10
2022-09-06T14:12:37.910Z,67.00
2022-09-06T14:17:41.241Z,66.10
2022-09-06T14:22:44.548Z,64.90
2022-09-06T14:27:49.236Z,63.50
2022-09-06T14:32:52.599Z,62.50
2022-09-06T14:37:55.766Z,62.90
2022-09-06T14:43:00.247Z,62.00
2022-09-06T14:48:04.258Z,61.10
2022-09-06T14:53:24.037Z,60.70
2022-09-06T14:58:32.740Z,64.60
2022-09-06T15:03:36.011Z,66.70
2022-09-06T15:08:39.483Z,66.20
2022-09-06T15:13:44.191Z,65.20
2022-09-06T15:18:47.484Z,67.40
2022-09-06T15:23:51.800Z,68.50
2022-09-06T15:28:56.615Z,69.90
2022-09-06T15:34:01.502Z,69.50
2022-09-06T15:39:04.975Z,69.30
2022-09-06T15:44:11.881Z,69.80
2022-09-06T15:49:17.611Z,70.80
2022-09-06T15:54:44.629Z,71.10
2022-09-06T15:59:49.726Z,71.60
2022-09-06T16:04:52.972Z,71.70
2022-09-06T16:09:56.173Z,72.70
2022-09-06T16:15:01.281Z,72.60
2022-09-06T16:20:05.312Z,73.10
2022-09-06T16:25:08.882Z,73.90
2022-09-06T16:30:13.901Z,72.90
2022-09-06T16:35:17.802Z,73.20
2022-09-06T16:40:21.041Z,73.30
2022-09-06T16:45:25.517Z,73.90
2022-09-06T16:50:29.802Z,73.00
2022-09-06T16:55:36.772Z,72.50
2022-09-06T17:00:41.737Z,72.70
2022-09-06T17:05:49.695Z,72.50
2022-09-06T17:10:53.769Z,73.60
2022-09-06T17:16:21.408Z,73.10
2022-09-06T17:21:25.903Z,73.80
2022-09-06T17:26:29.952Z,73.00
2022-09-06T17:31:34.613Z,73.10
2022-09-06T17:36:38.249Z,73.60
2022-09-06T17:41:45.611Z,73.90
2022-09-06T17:47:11.848Z,74.00
2022-09-06T17:52:13.989Z,73.80
2022-09-06T17:57:17.532Z,73.90
2022-09-06T18:02:22.156Z,75.10
2022-09-06T18:07:25.397Z,74.30
2022-09-06T18:12:30.374Z,73.70
2022-09-06T18:17:35.090Z,74.40
2022-09-06T18:22:39.737Z,74.70
2022-09-06T18:27:43.146Z,74.40
2022-09-06T18:32:47.683Z,74.60
2022-09-06T18:37:51.078Z,74.70
2022-09-06T18:42:54.373Z,74.80
2022-09-06T18:47:59.639Z,74.90
2022-09-06T18:53:03.096Z,74.60
2022-09-06T18:58:06.377Z,74.70
2022-09-06T19:03:10.910Z,74.70
2022-09-06T19:08:14.249Z,74.20
2022-09-06T19:13:18.068Z,75.70
2022-09-06T19:18:23.494Z,74.50
2022-09-06T19:23:27.436Z,74.20
2022-09-06T19:28:31.590Z,74.60
2022-09-06T19:33:36.543Z,76.00
2022-09-06T19:44:09.017Z,75.30
2022-09-06T19:49:14.724Z,74.80
2022-09-06T19:54:18.999Z,75.10
2022-09-06T19:59:22.313Z,75.70
2022-09-06T20:04:28.194Z,75.30
2022-09-06T20:09:31.774Z,75.50
2022-09-06T20:14:34.894Z,75.90
2022-09-06T20:19:39.456Z,76.00
2022-09-06T20:24:42.744Z,76.10
2022-09-06T20:29:46.541Z,76.50
2022-09-06T20:34:51.027Z,76.10
2022-09-06T20:39:55.613Z,76.00
2022-09-06T20:44:58.996Z,76.40
2022-09-06T20:50:04.835Z,76.60
2022-09-06T20:55:09.179Z,76.10
2022-09-06T21:00:14.471Z,77.00
2022-09-06T21:05:19.806Z,76.20
2022-09-06T21:10:23.165Z,77.40
2022-09-06T21:15:26.474Z,77.00
2022-09-06T21:20:31.750Z,77.60
2022-09-06T21:25:35.197Z,77.40
2022-09-06T21:30:38.899Z,77.50
2022-09-06T21:35:43.614Z,77.70
2022-09-06T21:40:47.095Z,78.00
2022-09-06T21:45:50.584Z,78.00
2022-09-06T21:50:55.595Z,78.90
2022-09-06T21:56:00.175Z,79.20
2022-09-06T22:01:04.907Z,79.30
2022-09-06T22:06:10.908Z,78.60
2022-09-06T22:11:16.368Z,78.10
2022-09-06T22:16:22.026Z,78.10
2022-09-06T22:21:27.185Z,78.30
2022-09-06T22:26:33.308Z,78.20
2022-09-06T22:31:38.000Z,77.80
2022-09-06T22:36:43.666Z,77.50
2022-09-06T22:41:46.922Z,78.60
2022-09-06T22:46:50.778Z,78.10
2022-09-06T22:51:55.332Z,78.30
2022-09-06T22:56:58.658Z,77.90
2022-09-06T23:02:02.444Z,79.00
2022-09-06T23:07:07.168Z,79.20
2022-09-06T23:12:10.228Z,81.00
2022-09-06T23:17:14.765Z,80.90
2022-09-06T23:22:19.267Z,82.00
2022-09-06T23:27:22.666Z,83.40
2022-09-06T23:32:26.222Z,82.70
2022-09-06T23:37:30.842Z,83.00
2022-09-06T23:42:34.612Z,83.40
2022-09-06T23:47:38.159Z,83.10
2022-09-06T23:52:42.745Z,82.70
2022-09-06T23:57:45.845Z,84.70
